Time;durP1;ratioP1;P1;durP2;ratioP2;P2;SDS_P1;SDS_P2;PMS_P1;PMS_P2;Temp;Humidity;BMP_temperature;BMP_pressure;BME280_temperature;BME280_humidity;BME280_pressure;Samples;Min_cycle;Max_cycle;Signal;HPM_P1;HPM_P2
2021/10/31 00:02:24;;;;;;;27.20;17.63;;;;;;;;;;5058970;28;20083;-83
2021/10/31 00:04:51;;;;;;;28.88;17.83;;;;;;;;;;5076446;28;20048;-83
2021/10/31 00:07:18;;;;;;;30.30;19.45;;;;;;;;;;5049700;28;20053;-82
2021/10/31 00:09:44;;;;;;;29.40;18.95;;;;;;;;;;5056007;28;20053;-82
2021/10/31 00:12:12;;;;;;;28.17;18.25;;;;;;;;;;5036660;28;20044;-82
2021/10/31 00:14:38;;;;;;;28.90;19.23;;;;;;;;;;5038623;28;20051;-82
2021/10/31 00:17:05;;;;;;;31.42;20.27;;;;;;;;;;5056037;28;20053;-82
2021/10/31 00:19:32;;;;;;;30.65;19.65;;;;;;;;;;5048935;28;20122;-83
2021/10/31 00:22:00;;;;;;;32.55;21.30;;;;;;;;;;5064710;28;20056;-81
2021/10/31 00:24:29;;;;;;;33.08;19.75;;;;;;;;;;5042329;28;20112;-82
2021/10/31 00:26:56;;;;;;;32.92;20.40;;;;;;;;;;5067263;28;20101;-83
2021/10/31 00:29:23;;;;;;;37.03;23.27;;;;;;;;;;5049071;28;20099;-82
2021/10/31 00:31:50;;;;;;;38.85;23.70;;;;;;;;;;5050125;28;20037;-82
2021/10/31 00:34:16;;;;;;;35.80;23.98;;;;;;;;;;5059799;28;20375;-82
2021/10/31 00:36:43;;;;;;;38.40;24.25;;;;;;;;;;5057312;28;20389;-82
2021/10/31 00:39:09;;;;;;;36.70;23.67;;;;;;;;;;5038906;28;20045;-82
2021/10/31 00:41:40;;;;;;;36.70;24.88;;;;;;;;;;5057113;28;20129;-82
2021/10/31 00:44:06;;;;;;;42.72;25.33;;;;;;;;;;5047207;28;20057;-82
2021/10/31 00:46:33;;;;;;;37.55;24.73;;;;;;;;;;5037601;28;20062;-82
2021/10/31 00:49:02;;;;;;;43.80;25.73;;;;;;;;;;5056806;28;20053;-82
2021/10/31 00:51:29;;;;;;;41.35;27.00;;;;;;;;;;5038202;28;20060;-82
2021/10/31 00:54:00;;;;;;;50.10;29.77;;;;;;;;;;5037709;28;20067;-82
2021/10/31 00:56:27;;;;;;;47.28;29.05;;;;;;;;;;5053324;28;20057;-82
2021/10/31 00:58:54;;;;;;;47.42;28.60;;;;;;;;;;5048968;28;20243;-83
2021/10/31 01:01:26;;;;;;;46.38;29.40;;;;;;;;;;5036112;28;20048;-82
2021/10/31 01:03:57;;;;;;;45.70;28.52;;;;;;;;;;5015398;28;20103;-82
2021/10/31 01:06:26;;;;;;;46.50;28.05;;;;;;;;;;4999833;28;20080;-82
2021/10/31 01:09:00;;;;;;;47.85;28.67;;;;;;;;;;5033353;28;20069;-82
2021/10/31 01:11:50;;;;;;;48.20;29.23;;;;;;;;;;5034273;28;20295;-82
2021/10/31 01:14:23;;;;;;;50.83;28.95;;;;;;;;;;5048379;28;20091;-82
2021/10/31 01:17:05;;;;;;;42.65;28.98;;;;;;;;;;5055195;28;20052;-82
2021/10/31 01:19:38;;;;;;;52.15;29.40;;;;;;;;;;5056641;28;20049;-82
2021/10/31 01:22:28;;;;;;;50.15;30.90;;;;;;;;;;5039053;28;20110;-82
2021/10/31 01:25:02;;;;;;;50.65;29.83;;;;;;;;;;5018986;28;20079;-83
2021/10/31 01:27:29;;;;;;;42.67;29.65;;;;;;;;;;5039169;28;20079;-83
2021/10/31 01:30:14;;;;;;;47.28;30.25;;;;;;;;;;5054095;28;20052;-83
2021/10/31 01:32:41;;;;;;;46.33;28.73;;;;;;;;;;5036446;28;20045;-83
2021/10/31 01:35:20;;;;;;;43.78;28.92;;;;;;;;;;5036775;28;20461;-83
2021/10/31 01:37:56;;;;;;;51.40;31.08;;;;;;;;;;5036379;28;20060;-83
2021/10/31 01:40:34;;;;;;;45.35;29.35;;;;;;;;;;5033747;28;20049;-83
2021/10/31 01:43:17;;;;;;;45.58;29.67;;;;;;;;;;5033897;28;20064;-83
2021/10/31 01:45:56;;;;;;;45.00;28.15;;;;;;;;;;5035019;28;20099;-83
2021/10/31 01:48:32;;;;;;;42.80;28.33;;;;;;;;;;5035949;28;20274;-83
2021/10/31 01:51:00;;;;;;;44.28;30.25;;;;;;;;;;5035534;28;20060;-82
2021/10/31 01:53:32;;;;;;;44.10;28.90;;;;;;;;;;5035537;28;20057;-82
2021/10/31 01:56:19;;;;;;;44.00;28.73;;;;;;;;;;5032903;28;20045;-82
2021/10/31 01:59:11;;;;;;;39.53;27.15;;;;;;;;;;5035888;28;20053;-83
2021/10/31 02:01:41;;;;;;;40.17;26.98;;;;;;;;;;5031191;28;20053;-83
2021/10/31 02:04:10;;;;;;;36.28;26.45;;;;;;;;;;5033176;28;20136;-83
2021/10/31 02:06:40;;;;;;;40.05;27.10;;;;;;;;;;5032639;28;20107;-83
2021/10/31 02:09:08;;;;;;;45.65;30.02;;;;;;;;;;5038172;28;20069;-82
2021/10/31 02:11:36;;;;;;;43.28;28.30;;;;;;;;;;5035533;28;20045;-81
2021/10/31 02:14:04;;;;;;;45.83;30.55;;;;;;;;;;5034060;28;20444;-81
2021/10/31 02:16:33;;;;;;;43.63;28.23;;;;;;;;;;5034008;28;20077;-83
2021/10/31 02:19:06;;;;;;;43.35;30.90;;;;;;;;;;5030913;28;20100;-81
2021/10/31 02:21:35;;;;;;;46.42;29.42;;;;;;;;;;5034551;28;20053;-81
2021/10/31 02:24:03;;;;;;;41.60;28.77;;;;;;;;;;5032541;28;20111;-83
2021/10/31 02:26:30;;;;;;;44.88;29.95;;;;;;;;;;5031497;28;20165;-82
2021/10/31 02:29:01;;;;;;;50.35;29.20;;;;;;;;;;5011441;28;20134;-81
2021/10/31 02:31:29;;;;;;;46.92;30.75;;;;;;;;;;5014764;28;20055;-81
2021/10/31 02:33:57;;;;;;;48.90;31.25;;;;;;;;;;5025985;28;20085;-82
2021/10/31 02:36:29;;;;;;;42.42;29.55;;;;;;;;;;5052029;28;20060;-83
2021/10/31 02:39:01;;;;;;;48.35;30.08;;;;;;;;;;5017524;28;20186;-82
2021/10/31 02:41:32;;;;;;;52.13;32.40;;;;;;;;;;5018415;28;20056;-82
2021/10/31 02:43:59;;;;;;;47.78;29.90;;;;;;;;;;5037681;28;20386;-82
2021/10/31 02:46:32;;;;;;;47.30;31.40;;;;;;;;;;5030528;28;20105;-82
2021/10/31 02:48:59;;;;;;;47.85;29.85;;;;;;;;;;5025885;28;20053;-83
2021/10/31 02:51:36;;;;;;;47.63;31.10;;;;;;;;;;5017868;28;20202;-82
2021/10/31 02:54:06;;;;;;;45.35;30.60;;;;;;;;;;5017210;28;20053;-83
2021/10/31 02:56:56;;;;;;;48.80;30.58;;;;;;;;;;5033751;28;20445;-82
2021/10/31 02:59:28;;;;;;;49.28;31.65;;;;;;;;;;5034598;28;20046;-82
2021/10/31 03:01:58;;;;;;;42.95;29.55;;;;;;;;;;5017689;28;20049;-82
2021/10/31 03:04:27;;;;;;;54.30;32.88;;;;;;;;;;5034078;28;20110;-82
2021/10/31 03:06:55;;;;;;;52.35;31.35;;;;;;;;;;5033933;28;20049;-82
2021/10/31 03:09:28;;;;;;;56.28;33.53;;;;;;;;;;5032080;28;20079;-82
2021/10/31 03:12:01;;;;;;;58.03;32.35;;;;;;;;;;5017196;28;20103;-82
2021/10/31 03:14:28;;;;;;;59.35;33.67;;;;;;;;;;5015930;28;20368;-82
2021/10/31 03:16:58;;;;;;;56.35;34.88;;;;;;;;;;5033376;28;20235;-82
2021/10/31 03:19:24;;;;;;;52.28;31.45;;;;;;;;;;5013647;28;20046;-82
2021/10/31 03:21:51;;;;;;;56.85;33.95;;;;;;;;;;5016045;28;20045;-82
2021/10/31 03:24:17;;;;;;;53.80;32.75;;;;;;;;;;5039810;28;20049;-82
2021/10/31 03:26:45;;;;;;;50.72;32.47;;;;;;;;;;5045307;28;20085;-82
2021/10/31 03:29:12;;;;;;;53.05;31.88;;;;;;;;;;5059264;28;20049;-82
2021/10/31 03:31:38;;;;;;;59.17;33.78;;;;;;;;;;5059499;28;20049;-82
2021/10/31 03:34:05;;;;;;;47.67;31.33;;;;;;;;;;5055105;28;20180;-82
2021/10/31 03:36:36;;;;;;;48.28;30.77;;;;;;;;;;5055488;28;20072;-82
2021/10/31 03:39:03;;;;;;;48.00;31.67;;;;;;;;;;5055912;28;20095;-82
2021/10/31 03:41:30;;;;;;;49.25;31.05;;;;;;;;;;5056381;28;20507;-82
2021/10/31 03:43:56;;;;;;;55.35;34.17;;;;;;;;;;5055418;28;20271;-82
2021/10/31 03:46:23;;;;;;;52.70;33.00;;;;;;;;;;5054874;28;20045;-81
2021/10/31 03:48:50;;;;;;;58.85;34.13;;;;;;;;;;5055127;28;20064;-82
2021/10/31 03:51:19;;;;;;;58.83;35.55;;;;;;;;;;5055761;28;20056;-81
2021/10/31 03:53:45;;;;;;;61.38;34.53;;;;;;;;;;5064733;28;20087;-82
2021/10/31 03:56:15;;;;;;;56.08;34.65;;;;;;;;;;5060657;28;20048;-82
2021/10/31 03:58:42;;;;;;;60.35;35.85;;;;;;;;;;5059423;28;20112;-81
2021/10/31 04:01:09;;;;;;;54.75;34.28;;;;;;;;;;5040730;28;20127;-82
2021/10/31 04:03:39;;;;;;;57.47;33.95;;;;;;;;;;5038848;28;20083;-82
2021/10/31 04:06:06;;;;;;;56.25;35.22;;;;;;;;;;5041607;28;20138;-82
2021/10/31 04:08:32;;;;;;;53.60;34.72;;;;;;;;;;5040309;28;20044;-82
2021/10/31 04:10:59;;;;;;;56.80;34.00;;;;;;;;;;5056790;28;20396;-82
2021/10/31 04:13:30;;;;;;;56.85;34.35;;;;;;;;;;5055046;28;20250;-82
2021/10/31 04:15:56;;;;;;;57.20;35.85;;;;;;;;;;5055166;28;20080;-82
2021/10/31 04:18:23;;;;;;;53.97;33.17;;;;;;;;;;5054805;28;20057;-82
2021/10/31 04:20:51;;;;;;;54.92;34.00;;;;;;;;;;5055843;28;20075;-83
2021/10/31 04:23:17;;;;;;;56.25;34.78;;;;;;;;;;5056694;28;20053;-82
2021/10/31 04:25:44;;;;;;;58.92;34.53;;;;;;;;;;5037751;28;20110;-83
2021/10/31 04:28:11;;;;;;;54.60;35.15;;;;;;;;;;5055392;28;20183;-82
2021/10/31 04:30:42;;;;;;;58.63;35.65;;;;;;;;;;5053346;28;20045;-83
2021/10/31 04:33:09;;;;;;;63.13;34.80;;;;;;;;;;5054159;28;20289;-82
2021/10/31 04:35:36;;;;;;;55.60;34.55;;;;;;;;;;5054179;28;20372;-80
2021/10/31 04:38:20;;;;;;;62.10;34.95;;;;;;;;;;5038989;28;20048;-82
2021/10/31 04:40:46;;;;;;;57.50;34.50;;;;;;;;;;5046573;28;20348;-82
2021/10/31 04:43:14;;;;;;;58.50;36.00;;;;;;;;;;5055544;28;20436;-83
2021/10/31 04:45:41;;;;;;;54.67;33.65;;;;;;;;;;5054554;28;20049;-83
2021/10/31 04:48:09;;;;;;;56.67;34.33;;;;;;;;;;5054605;28;20083;-81
2021/10/31 04:50:35;;;;;;;55.10;32.65;;;;;;;;;;5055222;28;20049;-83
2021/10/31 04:53:04;;;;;;;69.90;37.78;;;;;;;;;;5055779;28;20124;-83
2021/10/31 04:55:31;;;;;;;61.88;35.78;;;;;;;;;;5056577;28;20104;-82
2021/10/31 04:57:57;;;;;;;62.38;34.70;;;;;;;;;;5054151;28;20045;-81
2021/10/31 05:00:29;;;;;;;54.85;32.95;;;;;;;;;;5056485;28;20373;-82
2021/10/31 05:02:56;;;;;;;60.00;33.55;;;;;;;;;;5055330;28;20052;-81
2021/10/31 05:05:24;;;;;;;71.95;38.95;;;;;;;;;;5057306;28;20147;-82
2021/10/31 05:07:55;;;;;;;60.85;33.17;;;;;;;;;;5055661;28;20045;-82
2021/10/31 05:10:25;;;;;;;72.18;37.58;;;;;;;;;;5053966;28;20053;-81
2021/10/31 05:12:52;;;;;;;76.65;38.25;;;;;;;;;;5045813;28;20056;-81
2021/10/31 05:15:19;;;;;;;58.88;35.42;;;;;;;;;;5055381;28;20049;-81
2021/10/31 05:17:47;;;;;;;65.38;34.92;;;;;;;;;;5038623;28;20057;-81
2021/10/31 05:20:13;;;;;;;63.40;38.03;;;;;;;;;;5052082;28;20052;-81
2021/10/31 05:22:40;;;;;;;69.78;39.28;;;;;;;;;;5059223;28;20048;-82
2021/10/31 05:25:10;;;;;;;68.45;38.25;;;;;;;;;;5058065;28;20052;-82
2021/10/31 05:27:43;;;;;;;79.72;40.72;;;;;;;;;;5058674;28;20052;-82
2021/10/31 05:30:10;;;;;;;75.05;38.90;;;;;;;;;;5075994;28;20147;-82
2021/10/31 05:32:38;;;;;;;67.85;38.05;;;;;;;;;;5055885;28;20055;-81
2021/10/31 05:35:05;;;;;;;71.35;39.00;;;;;;;;;;5075080;28;20353;-81
2021/10/31 05:37:37;;;;;;;64.57;36.72;;;;;;;;;;5077486;28;20327;-81
2021/10/31 05:40:05;;;;;;;64.28;36.72;;;;;;;;;;5061738;28;20049;-82
2021/10/31 05:42:31;;;;;;;71.78;37.15;;;;;;;;;;5072366;28;20047;-82
2021/10/31 05:44:58;;;;;;;65.38;36.97;;;;;;;;;;5073452;28;20067;-82
2021/10/31 05:47:25;;;;;;;72.43;38.90;;;;;;;;;;5075379;28;20309;-82
2021/10/31 05:49:52;;;;;;;66.15;38.72;;;;;;;;;;5057162;28;20455;-82
2021/10/31 05:52:20;;;;;;;67.57;38.47;;;;;;;;;;5054314;28;20348;-82
2021/10/31 05:54:47;;;;;;;69.00;37.05;;;;;;;;;;5054622;28;20053;-82
2021/10/31 05:57:14;;;;;;;71.10;37.45;;;;;;;;;;5054413;28;20088;-82
2021/10/31 05:59:40;;;;;;;65.90;36.95;;;;;;;;;;5056835;28;20131;-82
2021/10/31 06:02:08;;;;;;;60.25;37.97;;;;;;;;;;5055617;28;20107;-82
2021/10/31 06:04:35;;;;;;;58.35;32.80;;;;;;;;;;5056921;28;20439;-82
2021/10/31 06:07:04;;;;;;;60.78;36.33;;;;;;;;;;5055291;28;20337;-82
2021/10/31 06:09:31;;;;;;;58.10;36.08;;;;;;;;;;5049123;28;20075;-83
2021/10/31 06:11:58;;;;;;;59.90;34.50;;;;;;;;;;5063531;28;20039;-81
2021/10/31 06:14:25;;;;;;;65.57;37.28;;;;;;;;;;5090886;28;20045;-82
2021/10/31 06:16:54;;;;;;;59.67;35.20;;;;;;;;;;5084841;28;20116;-83
2021/10/31 06:19:22;;;;;;;56.80;35.50;;;;;;;;;;5048759;28;20431;-83
2021/10/31 06:21:50;;;;;;;63.70;35.92;;;;;;;;;;5048677;28;20059;-81
2021/10/31 06:24:17;;;;;;;63.92;35.92;;;;;;;;;;5062023;28;20095;-82
2021/10/31 06:26:47;;;;;;;57.45;35.85;;;;;;;;;;5043907;28;20063;-82
2021/10/31 06:29:14;;;;;;;63.15;35.70;;;;;;;;;;5054922;28;20128;-82
2021/10/31 06:31:41;;;;;;;65.22;35.80;;;;;;;;;;5058213;28;20067;-83
2021/10/31 06:34:16;;;;;;;51.92;33.22;;;;;;;;;;5057924;28;20096;-82
2021/10/31 06:36:44;;;;;;;56.83;34.50;;;;;;;;;;5058119;28;20421;-83
2021/10/31 06:39:11;;;;;;;52.63;34.80;;;;;;;;;;5056369;28;20041;-83
2021/10/31 06:41:38;;;;;;;54.95;34.17;;;;;;;;;;5055286;28;20308;-83
2021/10/31 06:44:09;;;;;;;60.67;34.70;;;;;;;;;;5053802;28;20053;-84
2021/10/31 06:46:36;;;;;;;56.25;34.70;;;;;;;;;;5054790;28;20112;-81
2021/10/31 06:49:04;;;;;;;59.65;35.42;;;;;;;;;;5053342;28;20428;-81
2021/10/31 06:51:35;;;;;;;63.95;37.47;;;;;;;;;;5039145;28;20361;-83
2021/10/31 06:54:01;;;;;;;66.45;37.13;;;;;;;;;;5037094;28;20067;-83
2021/10/31 06:56:28;;;;;;;59.60;34.95;;;;;;;;;;5035129;28;20044;-82
2021/10/31 06:59:02;;;;;;;61.55;35.10;;;;;;;;;;5051829;28;20095;-82
2021/10/31 07:01:29;;;;;;;60.45;33.83;;;;;;;;;;5034162;28;20114;-82
2021/10/31 07:03:55;;;;;;;62.75;34.05;;;;;;;;;;5052637;28;20333;-82
2021/10/31 07:06:27;;;;;;;59.10;33.78;;;;;;;;;;5040087;28;20084;-82
2021/10/31 07:08:55;;;;;;;57.38;33.20;;;;;;;;;;5036652;28;20045;-82
2021/10/31 07:11:22;;;;;;;61.70;36.22;;;;;;;;;;5036563;28;20091;-82
2021/10/31 07:13:49;;;;;;;60.42;36.55;;;;;;;;;;5035137;28;20064;-82
2021/10/31 07:16:15;;;;;;;65.78;37.60;;;;;;;;;;5036138;28;20048;-82
2021/10/31 07:18:42;;;;;;;77.47;36.75;;;;;;;;;;5036696;28;20053;-82
2021/10/31 07:21:09;;;;;;;57.40;33.55;;;;;;;;;;5024295;28;20053;-82
2021/10/31 07:23:38;;;;;;;61.22;34.75;;;;;;;;;;5036901;28;20060;-82
2021/10/31 07:26:10;;;;;;;58.72;35.08;;;;;;;;;;5052389;28;20053;-82
2021/10/31 07:28:36;;;;;;;53.17;31.65;;;;;;;;;;5051414;28;20552;-83
2021/10/31 07:31:03;;;;;;;61.53;33.60;;;;;;;;;;5050764;28;20134;-82
2021/10/31 07:33:30;;;;;;;60.47;34.50;;;;;;;;;;5048959;28;20530;-82
2021/10/31 07:35:57;;;;;;;59.70;34.33;;;;;;;;;;5052334;28;20092;-82
2021/10/31 07:38:24;;;;;;;50.45;33.15;;;;;;;;;;5033493;28;20041;-82
2021/10/31 07:40:51;;;;;;;54.05;33.30;;;;;;;;;;5033817;28;20051;-82
2021/10/31 07:43:18;;;;;;;56.85;33.83;;;;;;;;;;5052191;28;20124;-82
2021/10/31 07:45:45;;;;;;;54.67;34.42;;;;;;;;;;5051819;28;20044;-83
2021/10/31 07:48:12;;;;;;;50.97;31.95;;;;;;;;;;5052832;28;20063;-82
2021/10/31 07:50:39;;;;;;;56.67;32.83;;;;;;;;;;5050752;28;20045;-82
2021/10/31 07:53:08;;;;;;;49.60;32.00;;;;;;;;;;5051420;28;20055;-82
2021/10/31 07:55:41;;;;;;;54.15;32.58;;;;;;;;;;5032323;28;20045;-84
2021/10/31 07:58:08;;;;;;;50.95;30.23;;;;;;;;;;5015568;28;20068;-84
2021/10/31 08:00:38;;;;;;;49.95;30.95;;;;;;;;;;5030816;28;20264;-84
2021/10/31 08:03:05;;;;;;;54.00;31.17;;;;;;;;;;5010904;28;20049;-83
2021/10/31 08:05:33;;;;;;;49.97;31.58;;;;;;;;;;5010502;28;20053;-83
2021/10/31 08:07:59;;;;;;;47.30;30.40;;;;;;;;;;5029237;28;20045;-84
2021/10/31 08:10:26;;;;;;;49.10;31.60;;;;;;;;;;5013838;28;20324;-83
2021/10/31 08:12:53;;;;;;;50.72;30.73;;;;;;;;;;5033654;28;20084;-84
2021/10/31 08:15:20;;;;;;;46.67;31.45;;;;;;;;;;5034217;28;20072;-84
2021/10/31 08:17:46;;;;;;;49.22;32.83;;;;;;;;;;5015901;28;20049;-83
2021/10/31 08:20:13;;;;;;;51.53;32.67;;;;;;;;;;5046205;28;20321;-84
2021/10/31 08:22:40;;;;;;;50.45;32.92;;;;;;;;;;5032871;28;20317;-84
2021/10/31 08:25:07;;;;;;;49.70;32.15;;;;;;;;;;5034498;28;20087;-84
2021/10/31 08:27:34;;;;;;;44.38;30.05;;;;;;;;;;5034749;28;20060;-84
2021/10/31 08:30:01;;;;;;;41.10;29.15;;;;;;;;;;5051017;28;20057;-84
2021/10/31 08:32:28;;;;;;;59.28;29.25;;;;;;;;;;5027703;28;20093;-84
2021/10/31 08:34:55;;;;;;;38.67;25.50;;;;;;;;;;5045812;28;20108;-84
2021/10/31 08:37:22;;;;;;;40.45;27.42;;;;;;;;;;5042823;28;20105;-84
2021/10/31 08:39:49;;;;;;;39.95;24.45;;;;;;;;;;5040172;28;20144;-83
2021/10/31 08:42:16;;;;;;;34.38;25.25;;;;;;;;;;5035542;28;20050;-82
2021/10/31 08:44:43;;;;;;;34.53;22.65;;;;;;;;;;5038209;28;20059;-83
2021/10/31 08:47:09;;;;;;;34.67;23.00;;;;;;;;;;5047314;28;20104;-82
2021/10/31 08:49:42;;;;;;;34.00;23.75;;;;;;;;;;5040137;28;20092;-84
2021/10/31 08:52:09;;;;;;;33.38;24.33;;;;;;;;;;5033722;28;20380;-82
2021/10/31 08:54:36;;;;;;;34.78;23.60;;;;;;;;;;5015124;28;20053;-82
2021/10/31 08:57:04;;;;;;;35.45;23.95;;;;;;;;;;5033135;28;20152;-82
2021/10/31 08:59:31;;;;;;;35.03;24.52;;;;;;;;;;5032403;28;20076;-83
2021/10/31 09:02:01;;;;;;;34.35;24.00;;;;;;;;;;5033275;28;20053;-83
2021/10/31 09:04:29;;;;;;;34.65;24.23;;;;;;;;;;5031249;28;20053;-83
2021/10/31 09:07:02;;;;;;;34.13;23.95;;;;;;;;;;5031691;28;20116;-83
2021/10/31 09:09:34;;;;;;;34.67;23.95;;;;;;;;;;5032715;28;20079;-83
2021/10/31 09:12:05;;;;;;;35.88;24.58;;;;;;;;;;5032244;28;20267;-83
2021/10/31 09:14:32;;;;;;;37.80;23.50;;;;;;;;;;5037277;28;20437;-85
2021/10/31 09:16:59;;;;;;;32.85;22.80;;;;;;;;;;5030867;28;20510;-82
2021/10/31 09:19:44;;;;;;;35.15;23.20;;;;;;;;;;5030978;28;20041;-83
2021/10/31 09:22:15;;;;;;;32.60;20.67;;;;;;;;;;5031485;28;20063;-83
2021/10/31 09:24:42;;;;;;;31.65;20.52;;;;;;;;;;5034470;28;20069;-82
2021/10/31 09:27:20;;;;;;;35.92;21.10;;;;;;;;;;5034909;28;20264;-82
2021/10/31 09:29:46;;;;;;;25.58;18.13;;;;;;;;;;5029909;28;20145;-83
2021/10/31 09:32:13;;;;;;;27.77;18.48;;;;;;;;;;5026008;28;20369;-82
2021/10/31 09:34:40;;;;;;;27.38;18.00;;;;;;;;;;5028720;28;20398;-82
2021/10/31 09:37:06;;;;;;;26.35;17.95;;;;;;;;;;5030640;28;20148;-82
2021/10/31 09:39:36;;;;;;;27.20;17.98;;;;;;;;;;5030850;28;20045;-83
2021/10/31 09:42:03;;;;;;;26.38;18.20;;;;;;;;;;5029272;28;20142;-83
2021/10/31 09:44:42;;;;;;;25.85;16.17;;;;;;;;;;5026732;28;20057;-83
2021/10/31 09:47:11;;;;;;;25.20;16.25;;;;;;;;;;5027631;28;20266;-83
2021/10/31 09:49:37;;;;;;;25.10;16.85;;;;;;;;;;5027671;28;20053;-81
2021/10/31 09:52:04;;;;;;;25.33;15.20;;;;;;;;;;5028892;28;20507;-81
2021/10/31 09:54:31;;;;;;;24.98;15.85;;;;;;;;;;5029177;28;20228;-82
2021/10/31 09:57:03;;;;;;;26.77;16.17;;;;;;;;;;5027512;28;20385;-82
2021/10/31 09:59:38;;;;;;;22.10;15.43;;;;;;;;;;5030059;28;20103;-82
2021/10/31 10:04:34;;;;;;;25.77;16.67;;;;;;;;;;5030774;28;20388;-81
2021/10/31 10:07:22;;;;;;;22.33;15.15;;;;;;;;;;5028708;28;20049;-82
2021/10/31 10:09:53;;;;;;;21.75;13.82;;;;;;;;;;5026873;28;20557;-82
2021/10/31 10:12:20;;;;;;;21.27;12.80;;;;;;;;;;5027505;28;20061;-82
2021/10/31 10:14:48;;;;;;;17.10;12.05;;;;;;;;;;5027448;28;20061;-82
2021/10/31 10:17:15;;;;;;;17.65;12.05;;;;;;;;;;5026773;28;20056;-82
2021/10/31 10:19:51;;;;;;;20.65;12.43;;;;;;;;;;5027132;28;20053;-81
2021/10/31 10:22:17;;;;;;;;;;;;;;;;;;5024677;28;20095;-82
2021/10/31 10:24:52;;;;;;;20.92;13.18;;;;;;;;;;5024555;28;20160;-82
2021/10/31 10:27:23;;;;;;;16.23;11.03;;;;;;;;;;5026142;28;20042;-82
2021/10/31 10:29:58;;;;;;;13.40;10.68;;;;;;;;;;5033363;28;20474;-81
2021/10/31 10:32:25;;;;;;;16.27;10.88;;;;;;;;;;5030672;28;20136;-82
2021/10/31 10:34:58;;;;;;;15.80;11.25;;;;;;;;;;5025996;28;20064;-82
2021/10/31 10:37:26;;;;;;;23.85;12.45;;;;;;;;;;5027972;28;20053;-83
2021/10/31 10:40:17;;;;;;;20.58;12.55;;;;;;;;;;5029241;28;20136;-83
2021/10/31 10:43:00;;;;;;;16.63;12.32;;;;;;;;;;5009342;28;20408;-83
2021/10/31 10:45:28;;;;;;;18.40;11.80;;;;;;;;;;5009533;28;20170;-82
2021/10/31 10:47:58;;;;;;;16.17;11.65;;;;;;;;;;5006401;28;20052;-81
2021/10/31 10:50:26;;;;;;;15.80;11.70;;;;;;;;;;5010138;28;20048;-83
2021/10/31 10:52:54;;;;;;;18.10;11.23;;;;;;;;;;5032081;28;20055;-83
2021/10/31 10:55:23;;;;;;;16.30;11.05;;;;;;;;;;5038608;28;20270;-83
2021/10/31 10:57:54;;;;;;;15.10;10.73;;;;;;;;;;5032847;28;20060;-82
2021/10/31 11:00:26;;;;;;;14.25;10.82;;;;;;;;;;5022219;28;20050;-82
2021/10/31 11:03:21;;;;;;;17.92;10.95;;;;;;;;;;5025029;28;20120;-82
2021/10/31 11:05:51;;;;;;;16.50;10.88;;;;;;;;;;5007243;28;20105;-82
2021/10/31 11:08:19;;;;;;;15.30;10.90;;;;;;;;;;5027794;28;20045;-82
2021/10/31 11:10:48;;;;;;;15.10;11.27;;;;;;;;;;5027290;28;20136;-82
2021/10/31 11:13:15;;;;;;;15.07;10.35;;;;;;;;;;5028262;28;20353;-82
2021/10/31 11:15:42;;;;;;;18.60;10.90;;;;;;;;;;5025763;28;20102;-82
2021/10/31 11:18:10;;;;;;;14.02;10.75;;;;;;;;;;5027149;28;20049;-82
2021/10/31 11:20:38;;;;;;;15.45;11.70;;;;;;;;;;5027006;28;20308;-82
2021/10/31 11:23:07;;;;;;;15.77;10.50;;;;;;;;;;5028181;28;20053;-83
2021/10/31 11:25:35;;;;;;;16.33;10.90;;;;;;;;;;5025759;28;20505;-82
2021/10/31 11:28:03;;;;;;;16.58;9.90;;;;;;;;;;5019333;28;20471;-83
2021/10/31 11:30:31;;;;;;;17.75;11.23;;;;;;;;;;5006986;28;20060;-83
2021/10/31 11:32:58;;;;;;;16.30;11.75;;;;;;;;;;5010965;28;20171;-83
2021/10/31 11:35:26;;;;;;;11.88;9.48;;;;;;;;;;5033884;28;20215;-83
2021/10/31 11:37:59;;;;;;;15.98;9.60;;;;;;;;;;5026329;28;20156;-83
2021/10/31 11:40:39;;;;;;;15.90;9.85;;;;;;;;;;5026860;28;20111;-83
2021/10/31 11:43:08;;;;;;;14.15;9.93;;;;;;;;;;5028001;28;20064;-83
2021/10/31 11:45:38;;;;;;;16.20;9.45;;;;;;;;;;5032398;28;20057;-83
2021/10/31 11:48:19;;;;;;;14.00;8.70;;;;;;;;;;5040263;28;20050;-82
2021/10/31 11:51:01;;;;;;;11.95;8.55;;;;;;;;;;5049700;28;20056;-83
2021/10/31 11:53:36;;;;;;;14.15;8.85;;;;;;;;;;5049929;28;20286;-82
2021/10/31 11:56:06;;;;;;;12.30;8.82;;;;;;;;;;5037094;28;20059;-84
2021/10/31 11:58:40;;;;;;;14.15;9.48;;;;;;;;;;5033105;28;20262;-85
2021/10/31 12:01:18;;;;;;;14.13;9.23;;;;;;;;;;5043328;28;20045;-85
2021/10/31 12:03:46;;;;;;;15.57;9.95;;;;;;;;;;5046074;28;20107;-84
2021/10/31 12:06:13;;;;;;;13.57;9.95;;;;;;;;;;5045697;28;20161;-84
2021/10/31 12:08:43;;;;;;;14.80;10.38;;;;;;;;;;5041325;28;20053;-85
2021/10/31 12:11:10;;;;;;;12.65;8.75;;;;;;;;;;5031892;28;20109;-85
2021/10/31 12:13:45;;;;;;;13.27;8.10;;;;;;;;;;5029910;28;20156;-85
2021/10/31 12:16:15;;;;;;;10.30;7.95;;;;;;;;;;5029479;28;20047;-84
2021/10/31 12:18:49;;;;;;;9.18;7.07;;;;;;;;;;5033513;28;20049;-85
2021/10/31 12:21:24;;;;;;;12.18;7.50;;;;;;;;;;5030431;28;20088;-85
2021/10/31 12:24:14;;;;;;;12.93;6.55;;;;;;;;;;5031096;28;20095;-84
2021/10/31 12:26:47;;;;;;;8.40;6.30;;;;;;;;;;5028124;28;20548;-84
2021/10/31 12:29:18;;;;;;;9.93;7.10;;;;;;;;;;5029973;28;20077;-84
2021/10/31 12:31:59;;;;;;;10.48;6.82;;;;;;;;;;5045011;28;20041;-84
2021/10/31 12:34:42;;;;;;;9.57;6.95;;;;;;;;;;5027673;28;20129;-84
2021/10/31 12:37:29;;;;;;;11.13;7.72;;;;;;;;;;5045823;28;20276;-84
2021/10/31 12:39:57;;;;;;;10.95;7.72;;;;;;;;;;5027323;28;20123;-84
2021/10/31 12:42:24;;;;;;;13.63;7.68;;;;;;;;;;5044761;28;20052;-84
2021/10/31 12:44:53;;;;;;;9.98;6.93;;;;;;;;;;5030023;28;20136;-84
2021/10/31 12:47:36;;;;;;;12.18;7.38;;;;;;;;;;5027985;28;20057;-85
2021/10/31 12:50:08;;;;;;;10.45;7.60;;;;;;;;;;5043449;28;20099;-85
2021/10/31 12:52:36;;;;;;;12.13;7.60;;;;;;;;;;5026336;28;20049;-84
2021/10/31 12:55:04;;;;;;;10.95;7.95;;;;;;;;;;5028924;28;20376;-85
2021/10/31 12:57:32;;;;;;;10.85;7.53;;;;;;;;;;5045580;28;20059;-85
2021/10/31 13:00:02;;;;;;;11.95;6.95;;;;;;;;;;5027434;28;20041;-84
2021/10/31 13:02:45;;;;;;;9.85;5.93;;;;;;;;;;5028144;28;20048;-85
2021/10/31 13:05:12;;;;;;;10.48;5.68;;;;;;;;;;5027070;28;20543;-85
2021/10/31 13:07:43;;;;;;;7.32;5.53;;;;;;;;;;5028555;28;20073;-85
2021/10/31 13:10:15;;;;;;;9.68;6.18;;;;;;;;;;5029040;28;20355;-85
2021/10/31 13:12:42;;;;;;;7.82;5.13;;;;;;;;;;5026554;28;20052;-85
2021/10/31 13:15:17;;;;;;;9.88;6.60;;;;;;;;;;5047946;28;20144;-85
2021/10/31 13:17:45;;;;;;;7.72;6.18;;;;;;;;;;5038547;28;20065;-84
2021/10/31 13:20:16;;;;;;;10.65;6.80;;;;;;;;;;5039684;28;20053;-85
2021/10/31 13:22:57;;;;;;;7.53;5.72;;;;;;;;;;5032913;28;20107;-86
2021/10/31 13:25:28;;;;;;;7.82;5.40;;;;;;;;;;5033501;28;20053;-84
2021/10/31 13:27:59;;;;;;;8.52;5.82;;;;;;;;;;5029577;28;20053;-84
2021/10/31 13:30:28;;;;;;;7.88;5.18;;;;;;;;;;5030562;28;20172;-83
2021/10/31 13:32:55;;;;;;;6.78;4.90;;;;;;;;;;5027875;28;20123;-83
2021/10/31 13:35:30;;;;;;;5.95;4.80;;;;;;;;;;5045009;28;20049;-85
2021/10/31 13:38:01;;;;;;;7.28;4.45;;;;;;;;;;5043327;28;20229;-85
2021/10/31 13:40:30;;;;;;;7.15;4.70;;;;;;;;;;5028146;28;20052;-83
2021/10/31 13:42:57;;;;;;;8.95;4.63;;;;;;;;;;5032067;28;20089;-85
2021/10/31 13:45:26;;;;;;;10.60;4.70;;;;;;;;;;5029683;28;20111;-84
2021/10/31 13:47:57;;;;;;;8.00;4.63;;;;;;;;;;5047090;28;20106;-84
2021/10/31 13:50:27;;;;;;;6.15;4.70;;;;;;;;;;5029083;28;20265;-84
2021/10/31 13:52:58;;;;;;;6.85;4.57;;;;;;;;;;5030357;28;20048;-84
2021/10/31 13:55:29;;;;;;;5.30;4.65;;;;;;;;;;5040375;28;20053;-85
2021/10/31 13:57:57;;;;;;;6.63;4.80;;;;;;;;;;5027070;28;20064;-83
2021/10/31 14:00:29;;;;;;;8.35;4.45;;;;;;;;;;5015124;28;20332;-84
2021/10/31 14:02:56;;;;;;;6.78;4.82;;;;;;;;;;5028313;28;20049;-83
2021/10/31 14:05:28;;;;;;;7.30;5.07;;;;;;;;;;5045954;28;20186;-84
2021/10/31 14:08:03;;;;;;;6.45;4.85;;;;;;;;;;5030691;28;20049;-84
2021/10/31 14:10:43;;;;;;;9.48;4.90;;;;;;;;;;5059340;28;20143;-84
2021/10/31 14:13:14;;;;;;;7.85;5.25;;;;;;;;;;5057008;28;20439;-84
2021/10/31 14:15:42;;;;;;;8.40;5.20;;;;;;;;;;5029825;28;20105;-84
2021/10/31 14:18:10;;;;;;;11.50;5.60;;;;;;;;;;5029026;28;20468;-85
2021/10/31 14:20:38;;;;;;;8.27;5.47;;;;;;;;;;5032032;28;20051;-84
2021/10/31 14:23:09;;;;;;;7.65;5.10;;;;;;;;;;5040778;28;20325;-83
2021/10/31 14:25:46;;;;;;;9.02;5.50;;;;;;;;;;5030862;28;20049;-84
2021/10/31 14:28:12;;;;;;;;;;;;;;;;;;5045741;28;20071;-84
2021/10/31 14:30:41;;;;;;;7.60;5.68;;;;;;;;;;5049649;28;20173;-84
2021/10/31 14:33:20;;;;;;;7.22;5.45;;;;;;;;;;5027176;28;20051;-84
2021/10/31 14:35:57;;;;;;;8.50;4.93;;;;;;;;;;5044005;28;20112;-84
2021/10/31 14:38:31;;;;;;;6.30;4.57;;;;;;;;;;5031160;28;20051;-84
2021/10/31 14:41:00;;;;;;;10.45;4.47;;;;;;;;;;5029550;28;20056;-85